sensor_id;sensor_type;location;lat;lon;timestamp;P1;durP1;ratioP1;P2;durP2;ratioP2
6947;SDS011;3513;47.664;9.162;2023-08-08T00:01:22;15.53;;;2.40;;
6947;SDS011;3513;47.664;9.162;2023-08-08T00:03:47;2.60;;;1.70;;
6947;SDS011;3513;47.664;9.162;2023-08-08T00:06:13;9.07;;;1.50;;
6947;SDS011;3513;47.664;9.162;2023-08-08T00:08:39;3.37;;;1.30;;
6947;SDS011;3513;47.664;9.162;2023-08-08T00:11:05;1.33;;;1.20;;
6947;SDS011;3513;47.664;9.162;2023-08-08T00:13:30;2.80;;;2.00;;
6947;SDS011;3513;47.664;9.162;2023-08-08T00:15:56;2.37;;;1.37;;
6947;SDS011;3513;47.664;9.162;2023-08-08T00:18:21;3.93;;;2.00;;
6947;SDS011;3513;47.664;9.162;2023-08-08T00:20:47;5.77;;;1.60;;
6947;SDS011;3513;47.664;9.162;2023-08-08T00:23:12;2.37;;;1.73;;
6947;SDS011;3513;47.664;9.162;2023-08-08T00:25:38;9.67;;;2.00;;
6947;SDS011;3513;47.664;9.162;2023-08-08T00:28:04;2.90;;;1.70;;
6947;SDS011;3513;47.664;9.162;2023-08-08T00:30:29;1.63;;;1.53;;
6947;SDS011;3513;47.664;9.162;2023-08-08T00:32:55;4.10;;;1.73;;
6947;SDS011;3513;47.664;9.162;2023-08-08T00:35:20;3.57;;;2.10;;
6947;SDS011;3513;47.664;9.162;2023-08-08T00:37:46;3.70;;;1.80;;
6947;SDS011;3513;47.664;9.162;2023-08-08T00:40:12;3.17;;;1.43;;
6947;SDS011;3513;47.664;9.162;2023-08-08T00:42:38;4.03;;;2.27;;
6947;SDS011;3513;47.664;9.162;2023-08-08T00:45:04;2.20;;;2.00;;
6947;SDS011;3513;47.664;9.162;2023-08-08T00:47:30;2.30;;;1.50;;
6947;SDS011;3513;47.664;9.162;2023-08-08T00:49:57;4.97;;;1.50;;
6947;SDS011;3513;47.664;9.162;2023-08-08T00:52:23;2.93;;;1.33;;
6947;SDS011;3513;47.664;9.162;2023-08-08T00:54:50;1.70;;;1.60;;
6947;SDS011;3513;47.664;9.162;2023-08-08T00:57:16;2.10;;;1.80;;
6947;SDS011;3513;47.664;9.162;2023-08-08T00:59:42;3.33;;;2.27;;
6947;SDS011;3513;47.664;9.162;2023-08-08T01:02:07;4.80;;;2.30;;
6947;SDS011;3513;47.664;9.162;2023-08-08T01:04:33;9.97;;;1.60;;
6947;SDS011;3513;47.664;9.162;2023-08-08T01:09:58;3.37;;;1.97;;
6947;SDS011;3513;47.664;9.162;2023-08-08T01:12:36;2.57;;;1.27;;
6947;SDS011;3513;47.664;9.162;2023-08-08T01:15:09;2.30;;;1.83;;
6947;SDS011;3513;47.664;9.162;2023-08-08T01:17:35;2.73;;;2.10;;
6947;SDS011;3513;47.664;9.162;2023-08-08T01:20:04;5.40;;;1.70;;
6947;SDS011;3513;47.664;9.162;2023-08-08T01:22:43;6.70;;;2.10;;
6947;SDS011;3513;47.664;9.162;2023-08-08T01:25:16;3.13;;;1.87;;
6947;SDS011;3513;47.664;9.162;2023-08-08T01:27:43;1.60;;;1.50;;
6947;SDS011;3513;47.664;9.162;2023-08-08T01:30:09;3.60;;;1.70;;
6947;SDS011;3513;47.664;9.162;2023-08-08T01:32:35;1.40;;;1.30;;
6947;SDS011;3513;47.664;9.162;2023-08-08T01:35:01;1.67;;;1.40;;
6947;SDS011;3513;47.664;9.162;2023-08-08T01:37:32;6.03;;;2.13;;
6947;SDS011;3513;47.664;9.162;2023-08-08T01:40:16;5.30;;;1.93;;
6947;SDS011;3513;47.664;9.162;2023-08-08T01:42:46;9.30;;;1.50;;
6947;SDS011;3513;47.664;9.162;2023-08-08T01:45:13;3.17;;;1.73;;
6947;SDS011;3513;47.664;9.162;2023-08-08T01:47:40;2.77;;;1.67;;
6947;SDS011;3513;47.664;9.162;2023-08-08T01:50:06;5.30;;;2.03;;
6947;SDS011;3513;47.664;9.162;2023-08-08T01:52:33;2.40;;;1.30;;
6947;SDS011;3513;47.664;9.162;2023-08-08T01:55:00;2.10;;;1.77;;
6947;SDS011;3513;47.664;9.162;2023-08-08T01:57:25;3.17;;;1.50;;
6947;SDS011;3513;47.664;9.162;2023-08-08T01:59:51;4.27;;;1.80;;
6947;SDS011;3513;47.664;9.162;2023-08-08T02:02:16;4.10;;;1.73;;
6947;SDS011;3513;47.664;9.162;2023-08-08T02:04:43;1.80;;;1.37;;
6947;SDS011;3513;47.664;9.162;2023-08-08T02:07:08;3.00;;;1.57;;
6947;SDS011;3513;47.664;9.162;2023-08-08T02:09:34;2.40;;;1.87;;
6947;SDS011;3513;47.664;9.162;2023-08-08T02:11:59;3.13;;;2.13;;
6947;SDS011;3513;47.664;9.162;2023-08-08T02:14:25;5.70;;;1.80;;
6947;SDS011;3513;47.664;9.162;2023-08-08T02:16:51;1.63;;;1.50;;
6947;SDS011;3513;47.664;9.162;2023-08-08T02:19:16;1.53;;;1.43;;
6947;SDS011;3513;47.664;9.162;2023-08-08T02:21:42;3.90;;;1.83;;
6947;SDS011;3513;47.664;9.162;2023-08-08T02:24:07;3.20;;;1.60;;
6947;SDS011;3513;47.664;9.162;2023-08-08T02:26:33;3.07;;;2.00;;
6947;SDS011;3513;47.664;9.162;2023-08-08T02:28:59;5.13;;;2.60;;
6947;SDS011;3513;47.664;9.162;2023-08-08T02:31:24;2.43;;;2.00;;
6947;SDS011;3513;47.664;9.162;2023-08-08T02:33:50;2.63;;;1.63;;
6947;SDS011;3513;47.664;9.162;2023-08-08T02:36:16;4.60;;;1.50;;
6947;SDS011;3513;47.664;9.162;2023-08-08T02:38:43;5.30;;;2.00;;
6947;SDS011;3513;47.664;9.162;2023-08-08T02:41:09;4.67;;;1.80;;
6947;SDS011;3513;47.664;9.162;2023-08-08T02:43:34;4.20;;;1.87;;
6947;SDS011;3513;47.664;9.162;2023-08-08T02:46:00;2.40;;;1.83;;
6947;SDS011;3513;47.664;9.162;2023-08-08T02:48:26;2.40;;;1.50;;
6947;SDS011;3513;47.664;9.162;2023-08-08T02:50:52;9.63;;;2.07;;
6947;SDS011;3513;47.664;9.162;2023-08-08T02:53:18;4.57;;;1.83;;
6947;SDS011;3513;47.664;9.162;2023-08-08T02:55:43;2.77;;;1.77;;
6947;SDS011;3513;47.664;9.162;2023-08-08T02:58:09;6.67;;;1.70;;
6947;SDS011;3513;47.664;9.162;2023-08-08T03:00:34;2.30;;;1.60;;
6947;SDS011;3513;47.664;9.162;2023-08-08T03:03:00;3.43;;;2.00;;
6947;SDS011;3513;47.664;9.162;2023-08-08T03:05:26;2.00;;;1.63;;
6947;SDS011;3513;47.664;9.162;2023-08-08T03:07:51;2.07;;;1.50;;
6947;SDS011;3513;47.664;9.162;2023-08-08T03:10:17;2.13;;;1.60;;
6947;SDS011;3513;47.664;9.162;2023-08-08T03:12:42;3.60;;;2.83;;
6947;SDS011;3513;47.664;9.162;2023-08-08T03:15:08;7.57;;;3.00;;
6947;SDS011;3513;47.664;9.162;2023-08-08T03:17:35;21.97;;;10.53;;
6947;SDS011;3513;47.664;9.162;2023-08-08T03:20:00;25.00;;;9.80;;
6947;SDS011;3513;47.664;9.162;2023-08-08T03:22:27;23.77;;;10.13;;
6947;SDS011;3513;47.664;9.162;2023-08-08T03:24:53;24.63;;;11.23;;
6947;SDS011;3513;47.664;9.162;2023-08-08T03:27:18;18.30;;;8.00;;
6947;SDS011;3513;47.664;9.162;2023-08-08T03:29:44;17.60;;;8.20;;
6947;SDS011;3513;47.664;9.162;2023-08-08T03:32:10;10.77;;;4.27;;
6947;SDS011;3513;47.664;9.162;2023-08-08T03:34:35;13.33;;;4.37;;
6947;SDS011;3513;47.664;9.162;2023-08-08T03:37:01;5.57;;;3.60;;
6947;SDS011;3513;47.664;9.162;2023-08-08T03:39:26;7.40;;;2.77;;
6947;SDS011;3513;47.664;9.162;2023-08-08T03:41:52;5.90;;;2.17;;
6947;SDS011;3513;47.664;9.162;2023-08-08T03:44:17;4.47;;;2.70;;
6947;SDS011;3513;47.664;9.162;2023-08-08T03:46:43;5.70;;;2.70;;
6947;SDS011;3513;47.664;9.162;2023-08-08T03:49:08;6.83;;;3.70;;
6947;SDS011;3513;47.664;9.162;2023-08-08T03:51:34;6.00;;;2.60;;
6947;SDS011;3513;47.664;9.162;2023-08-08T03:53:59;6.30;;;2.97;;
6947;SDS011;3513;47.664;9.162;2023-08-08T03:56:25;6.60;;;3.27;;
6947;SDS011;3513;47.664;9.162;2023-08-08T03:58:52;6.50;;;1.70;;
6947;SDS011;3513;47.664;9.162;2023-08-08T04:01:17;8.40;;;2.53;;
6947;SDS011;3513;47.664;9.162;2023-08-08T04:03:43;7.10;;;2.47;;
6947;SDS011;3513;47.664;9.162;2023-08-08T04:06:09;4.87;;;2.00;;
6947;SDS011;3513;47.664;9.162;2023-08-08T04:08:34;3.43;;;2.03;;
6947;SDS011;3513;47.664;9.162;2023-08-08T04:11:00;2.40;;;2.13;;
6947;SDS011;3513;47.664;9.162;2023-08-08T04:13:25;2.00;;;1.70;;
6947;SDS011;3513;47.664;9.162;2023-08-08T04:15:51;2.30;;;1.67;;
6947;SDS011;3513;47.664;9.162;2023-08-08T04:18:17;5.23;;;2.30;;
6947;SDS011;3513;47.664;9.162;2023-08-08T04:20:43;4.50;;;2.60;;
6947;SDS011;3513;47.664;9.162;2023-08-08T04:23:10;3.77;;;2.00;;
6947;SDS011;3513;47.664;9.162;2023-08-08T04:25:36;4.63;;;2.10;;
6947;SDS011;3513;47.664;9.162;2023-08-08T04:28:01;2.50;;;2.07;;
6947;SDS011;3513;47.664;9.162;2023-08-08T04:30:27;2.30;;;2.00;;
6947;SDS011;3513;47.664;9.162;2023-08-08T04:32:52;21.70;;;5.30;;
6947;SDS011;3513;47.664;9.162;2023-08-08T04:35:18;9.70;;;4.10;;
6947;SDS011;3513;47.664;9.162;2023-08-08T04:37:44;14.40;;;5.70;;
6947;SDS011;3513;47.664;9.162;2023-08-08T04:40:09;10.03;;;5.00;;
6947;SDS011;3513;47.664;9.162;2023-08-08T04:42:35;6.03;;;4.40;;
6947;SDS011;3513;47.664;9.162;2023-08-08T04:45:01;8.40;;;4.87;;
6947;SDS011;3513;47.664;9.162;2023-08-08T04:47:26;13.43;;;4.73;;
6947;SDS011;3513;47.664;9.162;2023-08-08T04:49:52;5.50;;;4.43;;
6947;SDS011;3513;47.664;9.162;2023-08-08T04:52:17;4.57;;;3.17;;
6947;SDS011;3513;47.664;9.162;2023-08-08T04:54:43;9.40;;;4.27;;
6947;SDS011;3513;47.664;9.162;2023-08-08T04:57:09;2.77;;;2.37;;
6947;SDS011;3513;47.664;9.162;2023-08-08T04:59:34;4.50;;;2.93;;
6947;SDS011;3513;47.664;9.162;2023-08-08T05:02:00;3.53;;;2.20;;
6947;SDS011;3513;47.664;9.162;2023-08-08T05:04:26;3.20;;;2.90;;
6947;SDS011;3513;47.664;9.162;2023-08-08T05:06:51;3.30;;;3.00;;
6947;SDS011;3513;47.664;9.162;2023-08-08T05:09:17;11.80;;;2.60;;
6947;SDS011;3513;47.664;9.162;2023-08-08T05:11:42;5.60;;;2.90;;
6947;SDS011;3513;47.664;9.162;2023-08-08T05:14:08;7.70;;;2.77;;
6947;SDS011;3513;47.664;9.162;2023-08-08T05:16:33;4.23;;;2.30;;
6947;SDS011;3513;47.664;9.162;2023-08-08T05:18:59;3.43;;;2.20;;
6947;SDS011;3513;47.664;9.162;2023-08-08T05:21:24;3.10;;;2.47;;
6947;SDS011;3513;47.664;9.162;2023-08-08T05:23:50;2.83;;;2.47;;
6947;SDS011;3513;47.664;9.162;2023-08-08T05:26:15;5.17;;;2.50;;
6947;SDS011;3513;47.664;9.162;2023-08-08T05:28:41;2.90;;;2.63;;
6947;SDS011;3513;47.664;9.162;2023-08-08T05:31:07;5.87;;;2.80;;
6947;SDS011;3513;47.664;9.162;2023-08-08T05:33:32;3.23;;;2.20;;
6947;SDS011;3513;47.664;9.162;2023-08-08T05:35:58;5.63;;;2.57;;
6947;SDS011;3513;47.664;9.162;2023-08-08T05:38:24;20.40;;;3.70;;
6947;SDS011;3513;47.664;9.162;2023-08-08T05:40:49;3.63;;;1.90;;
6947;SDS011;3513;47.664;9.162;2023-08-08T05:43:15;3.60;;;2.37;;
6947;SDS011;3513;47.664;9.162;2023-08-08T05:45:43;2.43;;;2.23;;
6947;SDS011;3513;47.664;9.162;2023-08-08T05:48:10;4.83;;;2.57;;
6947;SDS011;3513;47.664;9.162;2023-08-08T05:50:37;9.43;;;2.37;;
6947;SDS011;3513;47.664;9.162;2023-08-08T05:53:03;2.83;;;2.10;;
6947;SDS011;3513;47.664;9.162;2023-08-08T05:55:29;6.40;;;2.00;;
6947;SDS011;3513;47.664;9.162;2023-08-08T05:57:54;4.30;;;2.20;;
6947;SDS011;3513;47.664;9.162;2023-08-08T06:00:20;7.73;;;2.17;;
6947;SDS011;3513;47.664;9.162;2023-08-08T06:02:46;3.63;;;2.13;;
6947;SDS011;3513;47.664;9.162;2023-08-08T06:05:11;2.97;;;1.83;;
6947;SDS011;3513;47.664;9.162;2023-08-08T06:07:37;3.90;;;1.83;;
6947;SDS011;3513;47.664;9.162;2023-08-08T06:10:03;5.93;;;1.87;;
6947;SDS011;3513;47.664;9.162;2023-08-08T06:12:30;8.30;;;1.80;;
6947;SDS011;3513;47.664;9.162;2023-08-08T06:14:55;3.23;;;2.30;;
6947;SDS011;3513;47.664;9.162;2023-08-08T06:17:21;1.80;;;1.67;;
6947;SDS011;3513;47.664;9.162;2023-08-08T06:19:48;7.20;;;2.20;;
6947;SDS011;3513;47.664;9.162;2023-08-08T06:22:15;7.13;;;2.13;;
6947;SDS011;3513;47.664;9.162;2023-08-08T06:24:40;6.13;;;1.67;;
6947;SDS011;3513;47.664;9.162;2023-08-08T06:27:06;2.77;;;1.87;;
6947;SDS011;3513;47.664;9.162;2023-08-08T06:29:32;2.10;;;1.90;;
6947;SDS011;3513;47.664;9.162;2023-08-08T06:31:58;4.57;;;1.43;;
6947;SDS011;3513;47.664;9.162;2023-08-08T06:34:23;7.00;;;1.93;;
6947;SDS011;3513;47.664;9.162;2023-08-08T06:36:49;5.10;;;1.97;;
6947;SDS011;3513;47.664;9.162;2023-08-08T06:39:14;4.53;;;1.77;;
6947;SDS011;3513;47.664;9.162;2023-08-08T06:41:40;1.53;;;1.40;;
6947;SDS011;3513;47.664;9.162;2023-08-08T06:44:07;1.83;;;1.50;;
6947;SDS011;3513;47.664;9.162;2023-08-08T06:46:32;2.17;;;1.80;;
6947;SDS011;3513;47.664;9.162;2023-08-08T06:48:58;1.40;;;1.30;;
6947;SDS011;3513;47.664;9.162;2023-08-08T06:51:24;1.80;;;1.13;;
6947;SDS011;3513;47.664;9.162;2023-08-08T06:53:50;2.30;;;1.00;;
6947;SDS011;3513;47.664;9.162;2023-08-08T06:56:16;2.80;;;1.30;;
6947;SDS011;3513;47.664;9.162;2023-08-08T06:58:42;3.57;;;1.87;;
6947;SDS011;3513;47.664;9.162;2023-08-08T07:01:08;2.83;;;1.47;;
6947;SDS011;3513;47.664;9.162;2023-08-08T07:03:34;2.50;;;1.83;;
6947;SDS011;3513;47.664;9.162;2023-08-08T07:06:00;13.53;;;1.43;;
6947;SDS011;3513;47.664;9.162;2023-08-08T07:08:26;3.23;;;1.60;;
6947;SDS011;3513;47.664;9.162;2023-08-08T07:10:51;2.13;;;1.40;;
6947;SDS011;3513;47.664;9.162;2023-08-08T07:13:17;5.90;;;1.50;;
6947;SDS011;3513;47.664;9.162;2023-08-08T07:15:42;1.90;;;1.30;;
6947;SDS011;3513;47.664;9.162;2023-08-08T07:18:08;1.77;;;1.23;;
6947;SDS011;3513;47.664;9.162;2023-08-08T07:20:34;1.80;;;1.70;;
6947;SDS011;3513;47.664;9.162;2023-08-08T07:22:59;3.13;;;1.80;;
6947;SDS011;3513;47.664;9.162;2023-08-08T07:25:26;3.27;;;1.50;;
6947;SDS011;3513;47.664;9.162;2023-08-08T07:27:52;2.43;;;1.80;;
6947;SDS011;3513;47.664;9.162;2023-08-08T07:30:17;2.60;;;1.53;;
6947;SDS011;3513;47.664;9.162;2023-08-08T07:32:43;1.50;;;1.30;;
6947;SDS011;3513;47.664;9.162;2023-08-08T07:35:08;1.30;;;1.20;;
6947;SDS011;3513;47.664;9.162;2023-08-08T07:37:35;2.07;;;1.57;;
6947;SDS011;3513;47.664;9.162;2023-08-08T07:40:01;5.13;;;1.50;;
6947;SDS011;3513;47.664;9.162;2023-08-08T07:42:27;1.67;;;1.57;;
6947;SDS011;3513;47.664;9.162;2023-08-08T07:44:52;5.93;;;1.83;;
6947;SDS011;3513;47.664;9.162;2023-08-08T07:47:18;7.87;;;1.70;;
6947;SDS011;3513;47.664;9.162;2023-08-08T07:49:44;1.80;;;1.60;;
6947;SDS011;3513;47.664;9.162;2023-08-08T07:52:09;4.70;;;1.60;;
6947;SDS011;3513;47.664;9.162;2023-08-08T07:54:35;2.03;;;1.80;;
6947;SDS011;3513;47.664;9.162;2023-08-08T07:57:00;1.77;;;1.30;;
6947;SDS011;3513;47.664;9.162;2023-08-08T07:59:26;1.63;;;1.50;;
6947;SDS011;3513;47.664;9.162;2023-08-08T08:01:52;2.37;;;1.83;;
6947;SDS011;3513;47.664;9.162;2023-08-08T08:04:17;3.63;;;1.80;;
6947;SDS011;3513;47.664;9.162;2023-08-08T08:06:43;1.60;;;1.37;;
6947;SDS011;3513;47.664;9.162;2023-08-08T08:09:08;3.07;;;1.60;;
6947;SDS011;3513;47.664;9.162;2023-08-08T08:11:34;1.90;;;1.67;;
6947;SDS011;3513;47.664;9.162;2023-08-08T08:13:59;1.70;;;1.50;;
6947;SDS011;3513;47.664;9.162;2023-08-08T08:16:25;2.63;;;1.40;;
6947;SDS011;3513;47.664;9.162;2023-08-08T08:18:51;3.23;;;1.70;;
6947;SDS011;3513;47.664;9.162;2023-08-08T08:21:16;3.93;;;1.40;;
6947;SDS011;3513;47.664;9.162;2023-08-08T08:23:45;3.47;;;1.60;;
6947;SDS011;3513;47.664;9.162;2023-08-08T08:26:11;3.50;;;1.47;;
6947;SDS011;3513;47.664;9.162;2023-08-08T08:28:37;1.63;;;1.37;;
6947;SDS011;3513;47.664;9.162;2023-08-08T08:31:05;10.60;;;1.70;;
6947;SDS011;3513;47.664;9.162;2023-08-08T08:33:31;3.80;;;2.00;;
6947;SDS011;3513;47.664;9.162;2023-08-08T08:35:56;3.33;;;1.87;;
6947;SDS011;3513;47.664;9.162;2023-08-08T08:38:22;2.50;;;1.77;;
6947;SDS011;3513;47.664;9.162;2023-08-08T08:40:47;3.57;;;2.20;;
6947;SDS011;3513;47.664;9.162;2023-08-08T08:43:13;1.70;;;1.40;;
6947;SDS011;3513;47.664;9.162;2023-08-08T08:45:42;3.37;;;1.77;;
6947;SDS011;3513;47.664;9.162;2023-08-08T08:48:14;2.97;;;1.70;;
6947;SDS011;3513;47.664;9.162;2023-08-08T08:50:41;1.80;;;1.70;;
6947;SDS011;3513;47.664;9.162;2023-08-08T08:53:08;1.40;;;1.30;;
6947;SDS011;3513;47.664;9.162;2023-08-08T08:55:36;4.77;;;2.17;;
6947;SDS011;3513;47.664;9.162;2023-08-08T08:58:02;11.50;;;1.83;;
6947;SDS011;3513;47.664;9.162;2023-08-08T09:00:29;2.17;;;1.60;;
6947;SDS011;3513;47.664;9.162;2023-08-08T09:02:55;4.07;;;1.40;;
6947;SDS011;3513;47.664;9.162;2023-08-08T09:05:21;2.87;;;2.40;;
6947;SDS011;3513;47.664;9.162;2023-08-08T09:07:49;3.50;;;2.40;;
6947;SDS011;3513;47.664;9.162;2023-08-08T09:10:16;10.40;;;2.00;;
6947;SDS011;3513;47.664;9.162;2023-08-08T09:12:43;1.97;;;1.77;;
6947;SDS011;3513;47.664;9.162;2023-08-08T09:15:09;3.00;;;1.90;;
6947;SDS011;3513;47.664;9.162;2023-08-08T09:17:35;1.97;;;1.53;;
6947;SDS011;3513;47.664;9.162;2023-08-08T09:20:05;6.33;;;2.10;;
6947;SDS011;3513;47.664;9.162;2023-08-08T09:22:32;4.83;;;1.53;;
6947;SDS011;3513;47.664;9.162;2023-08-08T09:24:57;2.10;;;1.73;;
6947;SDS011;3513;47.664;9.162;2023-08-08T09:27:23;2.83;;;1.97;;
6947;SDS011;3513;47.664;9.162;2023-08-08T09:29:48;3.30;;;2.33;;
6947;SDS011;3513;47.664;9.162;2023-08-08T09:32:14;2.10;;;1.77;;
6947;SDS011;3513;47.664;9.162;2023-08-08T09:34:42;1.80;;;1.63;;
6947;SDS011;3513;47.664;9.162;2023-08-08T09:37:08;4.10;;;1.50;;
6947;SDS011;3513;47.664;9.162;2023-08-08T09:39:35;2.27;;;1.50;;
6947;SDS011;3513;47.664;9.162;2023-08-08T09:42:02;4.03;;;1.60;;
6947;SDS011;3513;47.664;9.162;2023-08-08T09:44:29;11.10;;;1.87;;
6947;SDS011;3513;47.664;9.162;2023-08-08T09:46:56;9.30;;;2.07;;
6947;SDS011;3513;47.664;9.162;2023-08-08T09:49:22;7.77;;;1.60;;
6947;SDS011;3513;47.664;9.162;2023-08-08T09:51:48;14.03;;;1.90;;
6947;SDS011;3513;47.664;9.162;2023-08-08T09:54:15;2.60;;;1.40;;
6947;SDS011;3513;47.664;9.162;2023-08-08T09:56:41;5.30;;;2.07;;
6947;SDS011;3513;47.664;9.162;2023-08-08T09:59:08;5.63;;;1.43;;
6947;SDS011;3513;47.664;9.162;2023-08-08T10:01:34;2.87;;;1.63;;
6947;SDS011;3513;47.664;9.162;2023-08-08T10:04:00;7.33;;;1.97;;
6947;SDS011;3513;47.664;9.162;2023-08-08T10:06:28;2.37;;;1.70;;
6947;SDS011;3513;47.664;9.162;2023-08-08T10:08:54;2.50;;;1.20;;
6947;SDS011;3513;47.664;9.162;2023-08-08T10:11:20;2.63;;;1.30;;
6947;SDS011;3513;47.664;9.162;2023-08-08T10:13:49;11.70;;;1.90;;
6947;SDS011;3513;47.664;9.162;2023-08-08T10:16:16;8.73;;;1.47;;
6947;SDS011;3513;47.664;9.162;2023-08-08T10:18:42;3.20;;;1.20;;
6947;SDS011;3513;47.664;9.162;2023-08-08T10:21:08;4.13;;;1.70;;
6947;SDS011;3513;47.664;9.162;2023-08-08T10:23:38;2.33;;;1.30;;
6947;SDS011;3513;47.664;9.162;2023-08-08T10:26:05;2.40;;;1.37;;
6947;SDS011;3513;47.664;9.162;2023-08-08T10:28:51;1.30;;;1.20;;
6947;SDS011;3513;47.664;9.162;2023-08-08T10:31:20;2.30;;;1.50;;
6947;SDS011;3513;47.664;9.162;2023-08-08T10:33:46;1.57;;;1.13;;
6947;SDS011;3513;47.664;9.162;2023-08-08T10:36:12;4.50;;;1.00;;
6947;SDS011;3513;47.664;9.162;2023-08-08T10:38:45;7.53;;;2.03;;
6947;SDS011;3513;47.664;9.162;2023-08-08T10:41:20;1.63;;;1.00;;
6947;SDS011;3513;47.664;9.162;2023-08-08T10:43:53;2.50;;;1.60;;
6947;SDS011;3513;47.664;9.162;2023-08-08T10:46:26;3.40;;;1.40;;
6947;SDS011;3513;47.664;9.162;2023-08-08T10:48:54;1.40;;;1.30;;
6947;SDS011;3513;47.664;9.162;2023-08-08T10:51:21;2.77;;;1.60;;
6947;SDS011;3513;47.664;9.162;2023-08-08T10:53:51;1.43;;;1.30;;
6947;SDS011;3513;47.664;9.162;2023-08-08T10:56:18;2.00;;;1.33;;
6947;SDS011;3513;47.664;9.162;2023-08-08T10:58:47;5.10;;;1.47;;
6947;SDS011;3513;47.664;9.162;2023-08-08T11:01:13;7.43;;;1.70;;
6947;SDS011;3513;47.664;9.162;2023-08-08T11:03:42;1.50;;;1.27;;
6947;SDS011;3513;47.664;9.162;2023-08-08T11:06:08;1.63;;;1.07;;
6947;SDS011;3513;47.664;9.162;2023-08-08T11:08:35;1.33;;;1.17;;
6947;SDS011;3513;47.664;9.162;2023-08-08T11:11:03;1.73;;;1.40;;
6947;SDS011;3513;47.664;9.162;2023-08-08T11:13:30;1.90;;;1.00;;
6947;SDS011;3513;47.664;9.162;2023-08-08T11:15:55;1.70;;;1.20;;
6947;SDS011;3513;47.664;9.162;2023-08-08T11:18:21;3.80;;;1.33;;
6947;SDS011;3513;47.664;9.162;2023-08-08T11:20:47;7.73;;;1.50;;
6947;SDS011;3513;47.664;9.162;2023-08-08T11:23:14;2.43;;;1.50;;
6947;SDS011;3513;47.664;9.162;2023-08-08T11:25:41;1.63;;;1.30;;
6947;SDS011;3513;47.664;9.162;2023-08-08T11:28:08;3.60;;;1.40;;
6947;SDS011;3513;47.664;9.162;2023-08-08T11:30:34;9.20;;;1.43;;
6947;SDS011;3513;47.664;9.162;2023-08-08T11:33:02;2.60;;;1.30;;
6947;SDS011;3513;47.664;9.162;2023-08-08T11:35:28;1.40;;;1.20;;
6947;SDS011;3513;47.664;9.162;2023-08-08T11:37:55;8.30;;;1.90;;
6947;SDS011;3513;47.664;9.162;2023-08-08T11:40:22;2.80;;;1.23;;
6947;SDS011;3513;47.664;9.162;2023-08-08T11:42:50;4.40;;;1.50;;
6947;SDS011;3513;47.664;9.162;2023-08-08T11:45:17;2.00;;;1.30;;
6947;SDS011;3513;47.664;9.162;2023-08-08T11:47:43;5.13;;;1.67;;
6947;SDS011;3513;47.664;9.162;2023-08-08T11:50:12;1.47;;;1.10;;
6947;SDS011;3513;47.664;9.162;2023-08-08T11:52:42;3.90;;;1.33;;
6947;SDS011;3513;47.664;9.162;2023-08-08T11:55:10;1.63;;;1.03;;
6947;SDS011;3513;47.664;9.162;2023-08-08T11:57:37;7.27;;;1.73;;
6947;SDS011;3513;47.664;9.162;2023-08-08T12:00:04;1.33;;;0.90;;
6947;SDS011;3513;47.664;9.162;2023-08-08T12:02:35;5.27;;;1.20;;
6947;SDS011;3513;47.664;9.162;2023-08-08T12:05:04;2.40;;;1.70;;
6947;SDS011;3513;47.664;9.162;2023-08-08T12:07:42;5.43;;;1.40;;
6947;SDS011;3513;47.664;9.162;2023-08-08T12:10:16;0.93;;;0.93;;
6947;SDS011;3513;47.664;9.162;2023-08-08T12:12:44;3.53;;;1.20;;
6947;SDS011;3513;47.664;9.162;2023-08-08T12:15:10;1.70;;;0.83;;
6947;SDS011;3513;47.664;9.162;2023-08-08T12:17:36;2.40;;;1.33;;
6947;SDS011;3513;47.664;9.162;2023-08-08T12:20:06;3.60;;;1.10;;
6947;SDS011;3513;47.664;9.162;2023-08-08T12:22:33;1.43;;;1.23;;
6947;SDS011;3513;47.664;9.162;2023-08-08T12:24:59;2.20;;;1.23;;
6947;SDS011;3513;47.664;9.162;2023-08-08T12:27:25;2.70;;;1.67;;
6947;SDS011;3513;47.664;9.162;2023-08-08T12:29:51;2.20;;;1.20;;
6947;SDS011;3513;47.664;9.162;2023-08-08T12:32:18;1.40;;;1.27;;
6947;SDS011;3513;47.664;9.162;2023-08-08T12:34:44;2.50;;;1.43;;
6947;SDS011;3513;47.664;9.162;2023-08-08T12:37:10;9.40;;;1.37;;
6947;SDS011;3513;47.664;9.162;2023-08-08T12:39:35;4.70;;;1.40;;
6947;SDS011;3513;47.664;9.162;2023-08-08T12:42:01;1.83;;;1.50;;
6947;SDS011;3513;47.664;9.162;2023-08-08T12:44:27;2.23;;;1.30;;
6947;SDS011;3513;47.664;9.162;2023-08-08T12:46:52;4.83;;;1.50;;
6947;SDS011;3513;47.664;9.162;2023-08-08T12:49:18;3.23;;;1.30;;
6947;SDS011;3513;47.664;9.162;2023-08-08T12:51:43;2.77;;;1.70;;
6947;SDS011;3513;47.664;9.162;2023-08-08T12:54:09;2.23;;;1.40;;
6947;SDS011;3513;47.664;9.162;2023-08-08T12:56:34;4.10;;;1.60;;
6947;SDS011;3513;47.664;9.162;2023-08-08T12:59:01;1.27;;;1.10;;
6947;SDS011;3513;47.664;9.162;2023-08-08T13:01:27;4.77;;;1.00;;
6947;SDS011;3513;47.664;9.162;2023-08-08T13:03:53;4.10;;;1.50;;
6947;SDS011;3513;47.664;9.162;2023-08-08T13:06:19;2.83;;;1.40;;
6947;SDS011;3513;47.664;9.162;2023-08-08T13:08:44;1.87;;;1.60;;
6947;SDS011;3513;47.664;9.162;2023-08-08T13:11:10;2.70;;;1.60;;
6947;SDS011;3513;47.664;9.162;2023-08-08T13:13:35;2.40;;;1.63;;
6947;SDS011;3513;47.664;9.162;2023-08-08T13:16:01;6.23;;;1.60;;
6947;SDS011;3513;47.664;9.162;2023-08-08T13:18:28;3.47;;;1.53;;
6947;SDS011;3513;47.664;9.162;2023-08-08T13:20:53;2.07;;;1.33;;
6947;SDS011;3513;47.664;9.162;2023-08-08T13:23:19;4.93;;;1.53;;
6947;SDS011;3513;47.664;9.162;2023-08-08T13:25:44;2.10;;;1.50;;
6947;SDS011;3513;47.664;9.162;2023-08-08T13:28:10;2.30;;;1.40;;
6947;SDS011;3513;47.664;9.162;2023-08-08T13:30:36;3.87;;;1.63;;
6947;SDS011;3513;47.664;9.162;2023-08-08T13:33:01;1.83;;;1.10;;
6947;SDS011;3513;47.664;9.162;2023-08-08T13:35:28;7.07;;;1.00;;
6947;SDS011;3513;47.664;9.162;2023-08-08T13:37:55;2.07;;;1.30;;
6947;SDS011;3513;47.664;9.162;2023-08-08T13:40:20;2.60;;;1.70;;
6947;SDS011;3513;47.664;9.162;2023-08-08T13:42:46;8.40;;;1.60;;
6947;SDS011;3513;47.664;9.162;2023-08-08T13:45:17;2.70;;;1.40;;
6947;SDS011;3513;47.664;9.162;2023-08-08T13:47:43;2.73;;;1.20;;
6947;SDS011;3513;47.664;9.162;2023-08-08T13:50:08;1.77;;;1.17;;
6947;SDS011;3513;47.664;9.162;2023-08-08T13:52:34;3.63;;;0.90;;
6947;SDS011;3513;47.664;9.162;2023-08-08T13:55:00;11.80;;;1.70;;
6947;SDS011;3513;47.664;9.162;2023-08-08T13:57:25;5.93;;;1.60;;
6947;SDS011;3513;47.664;9.162;2023-08-08T13:59:51;1.60;;;1.10;;
6947;SDS011;3513;47.664;9.162;2023-08-08T14:02:17;1.17;;;1.07;;
6947;SDS011;3513;47.664;9.162;2023-08-08T14:04:45;7.50;;;1.63;;
6947;SDS011;3513;47.664;9.162;2023-08-08T14:07:11;1.83;;;1.57;;
6947;SDS011;3513;47.664;9.162;2023-08-08T14:09:36;5.23;;;1.90;;
6947;SDS011;3513;47.664;9.162;2023-08-08T14:12:02;3.13;;;2.00;;
6947;SDS011;3513;47.664;9.162;2023-08-08T14:14:28;1.67;;;1.30;;
6947;SDS011;3513;47.664;9.162;2023-08-08T14:16:54;11.83;;;1.53;;
6947;SDS011;3513;47.664;9.162;2023-08-08T14:19:19;4.40;;;1.57;;
6947;SDS011;3513;47.664;9.162;2023-08-08T14:21:45;2.60;;;1.50;;
6947;SDS011;3513;47.664;9.162;2023-08-08T14:24:10;6.03;;;2.13;;
6947;SDS011;3513;47.664;9.162;2023-08-08T14:26:36;10.00;;;1.67;;
6947;SDS011;3513;47.664;9.162;2023-08-08T14:29:02;1.53;;;1.43;;
6947;SDS011;3513;47.664;9.162;2023-08-08T14:31:27;1.87;;;1.50;;
6947;SDS011;3513;47.664;9.162;2023-08-08T14:33:53;4.77;;;1.50;;
6947;SDS011;3513;47.664;9.162;2023-08-08T14:36:18;1.93;;;1.30;;
6947;SDS011;3513;47.664;9.162;2023-08-08T14:38:44;3.63;;;1.50;;
6947;SDS011;3513;47.664;9.162;2023-08-08T14:41:10;3.90;;;1.60;;
6947;SDS011;3513;47.664;9.162;2023-08-08T14:43:35;2.53;;;1.60;;
6947;SDS011;3513;47.664;9.162;2023-08-08T14:46:01;2.77;;;1.30;;
6947;SDS011;3513;47.664;9.162;2023-08-08T14:48:26;3.17;;;1.37;;
6947;SDS011;3513;47.664;9.162;2023-08-08T14:50:52;2.87;;;2.60;;
6947;SDS011;3513;47.664;9.162;2023-08-08T14:53:18;4.37;;;2.03;;
6947;SDS011;3513;47.664;9.162;2023-08-08T14:55:43;1.93;;;1.40;;
6947;SDS011;3513;47.664;9.162;2023-08-08T14:58:09;3.50;;;2.10;;
6947;SDS011;3513;47.664;9.162;2023-08-08T15:00:34;1.20;;;1.10;;
6947;SDS011;3513;47.664;9.162;2023-08-08T15:03:00;15.00;;;1.57;;
6947;SDS011;3513;47.664;9.162;2023-08-08T15:05:25;1.27;;;1.17;;
6947;SDS011;3513;47.664;9.162;2023-08-08T15:07:51;4.80;;;1.40;;
6947;SDS011;3513;47.664;9.162;2023-08-08T15:10:16;5.43;;;1.90;;
6947;SDS011;3513;47.664;9.162;2023-08-08T15:12:42;1.23;;;1.13;;